createdAt,value
2022-11-13T07:50:14.391Z,71.90
2022-11-13T07:53:02.157Z,72.84
2022-11-13T07:55:47.819Z,73.11
2022-11-13T07:58:32.852Z,72.01
2022-11-13T08:04:05.889Z,72.30
2022-11-13T08:06:51.277Z,71.56
2022-11-13T08:09:36.612Z,71.61
2022-11-13T08:12:21.788Z,72.95
2022-11-13T08:15:12.137Z,72.15
2022-11-13T08:18:00.677Z,73.00
2022-11-13T08:20:45.917Z,73.35
2022-11-13T08:23:31.953Z,72.87
2022-11-13T08:26:18.642Z,72.80
2022-11-13T08:29:04.223Z,73.53
2022-11-13T08:31:49.237Z,74.02
2022-11-13T08:34:34.144Z,72.99
2022-11-13T08:37:19.456Z,73.42
2022-11-13T08:40:04.884Z,73.42
2022-11-13T08:42:50.113Z,73.06
2022-11-13T08:45:35.227Z,72.83
2022-11-13T08:48:20.130Z,72.55
2022-11-13T08:51:05.545Z,72.64
2022-11-13T08:53:50.885Z,74.11
2022-11-13T08:56:36.266Z,72.84
2022-11-13T08:59:23.656Z,73.88
2022-11-13T09:02:12.939Z,72.90
2022-11-13T09:04:58.305Z,73.43
2022-11-13T09:07:43.470Z,73.96
2022-11-13T09:10:28.796Z,73.99
2022-11-13T09:13:13.774Z,74.16
2022-11-13T09:16:02.952Z,73.11
2022-11-13T09:18:51.945Z,72.69
2022-11-13T09:21:37.460Z,73.86
2022-11-13T09:24:22.760Z,72.67
2022-11-13T09:27:08.092Z,73.54
2022-11-13T09:29:55.758Z,73.38
2022-11-13T09:32:40.917Z,73.78
2022-11-13T09:35:34.472Z,73.25
2022-11-13T09:38:19.553Z,72.35
2022-11-13T09:41:29.646Z,72.81
2022-11-13T09:44:18.508Z,72.07
2022-11-13T09:47:48.737Z,73.52
2022-11-13T09:50:34.368Z,72.64
2022-11-13T09:53:19.374Z,73.46
2022-11-13T09:56:26.143Z,73.09
2022-11-13T09:59:34.957Z,72.16
2022-11-13T10:02:39.272Z,72.84
2022-11-13T10:05:44.734Z,73.41
2022-11-13T10:08:40.059Z,73.44
2022-11-13T10:11:34.221Z,73.01
2022-11-13T10:14:37.053Z,72.49
2022-11-13T10:17:45.732Z,72.12
2022-11-13T10:20:40.026Z,72.24
2022-11-13T10:23:37.897Z,73.35
2022-11-13T10:26:25.087Z,73.66
2022-11-13T10:29:13.736Z,72.97
2022-11-13T10:31:59.538Z,72.36
2022-11-13T10:34:51.110Z,75.11
2022-11-13T10:37:54.374Z,73.92
2022-11-13T10:40:40.517Z,73.63
2022-11-13T10:43:26.894Z,72.76
2022-11-13T10:46:26.893Z,73.14
2022-11-13T10:49:26.320Z,74.68
2022-11-13T10:52:22.292Z,73.01
2022-11-13T10:55:17.463Z,72.25
2022-11-13T10:58:11.900Z,73.27
2022-11-13T11:00:57.401Z,73.25
2022-11-13T11:03:50.301Z,73.14
2022-11-13T11:07:17.873Z,73.23
2022-11-13T11:09:48.796Z,73.85
2022-11-13T11:12:33.845Z,74.05
2022-11-13T11:15:26.894Z,74.01
2022-11-13T11:18:46.153Z,72.55
2022-11-13T11:21:34.849Z,74.54
2022-11-13T11:24:30.529Z,73.47
2022-11-13T11:27:29.018Z,73.17
2022-11-13T11:30:20.870Z,73.80
2022-11-13T11:33:21.266Z,73.90
2022-11-13T11:36:12.107Z,73.37
2022-11-13T11:39:34.194Z,73.36
2022-11-13T11:42:51.757Z,72.32
2022-11-13T11:45:41.007Z,72.88
2022-11-13T11:48:31.263Z,73.06
2022-11-13T11:51:34.699Z,74.04
2022-11-13T11:54:41.324Z,72.05
2022-11-13T11:57:32.435Z,72.62
2022-11-13T12:00:19.737Z,72.41
2022-11-13T12:03:23.418Z,71.86
2022-11-13T12:06:39.393Z,72.44
2022-11-13T12:09:31.343Z,72.50
2022-11-13T12:12:56.015Z,73.62
2022-11-13T12:16:09.639Z,72.85
2022-11-13T12:19:04.178Z,73.55
2022-11-13T12:22:18.241Z,74.06
2022-11-13T12:25:28.303Z,74.25
2022-11-13T12:28:52.140Z,73.17
2022-11-13T12:32:11.406Z,74.14
2022-11-13T12:35:04.823Z,75.15
2022-11-13T12:37:56.037Z,74.59
2022-11-13T12:40:59.061Z,74.45
2022-11-13T12:44:14.883Z,73.89
2022-11-13T12:47:01.571Z,73.99
2022-11-13T12:49:46.809Z,73.60
2022-11-13T12:52:32.010Z,72.59
2022-11-13T12:55:35.301Z,72.17
2022-11-13T12:58:26.015Z,73.51
2022-11-13T13:01:11.844Z,73.86
2022-11-13T13:04:19.162Z,73.84
2022-11-13T13:07:07.143Z,74.39
2022-11-13T13:10:17.641Z,72.72
2022-11-13T13:13:19.554Z,73.13
2022-11-13T13:16:08.899Z,72.99
2022-11-13T13:19:22.800Z,73.05
2022-11-13T13:22:24.182Z,72.71
2022-11-13T13:25:27.279Z,73.07
2022-11-13T13:28:21.341Z,72.63
2022-11-13T13:31:13.015Z,72.97
2022-11-13T13:34:01.061Z,73.20
2022-11-13T13:36:49.022Z,73.10
2022-11-13T13:40:05.419Z,74.07
2022-11-13T13:43:00.908Z,73.77
2022-11-13T13:45:48.921Z,72.55
2022-11-13T13:48:39.024Z,73.13
2022-11-13T13:51:45.083Z,71.88
2022-11-13T13:54:34.367Z,72.11
2022-11-13T13:57:19.473Z,72.26
2022-11-13T14:00:11.842Z,71.22
2022-11-13T14:05:45.577Z,72.87
2022-11-13T14:08:30.903Z,73.17
2022-11-13T14:11:18.565Z,73.44
2022-11-13T14:14:08.920Z,73.58
2022-11-13T14:16:56.734Z,73.37
2022-11-13T14:19:49.241Z,71.82
2022-11-13T14:22:34.429Z,71.96
2022-11-13T14:25:23.961Z,73.08
2022-11-13T14:28:31.284Z,72.90
2022-11-13T14:31:16.909Z,72.75
2022-11-13T14:34:09.679Z,71.55
2022-11-13T14:36:54.690Z,71.96
2022-11-13T14:39:40.062Z,70.78
2022-11-13T14:42:39.410Z,71.14
2022-11-13T14:45:26.428Z,71.24
2022-11-13T14:48:19.386Z,71.22
2022-11-13T14:51:07.160Z,71.99
2022-11-13T14:54:07.854Z,71.37
2022-11-13T14:56:53.959Z,71.70
2022-11-13T14:59:41.193Z,71.46
2022-11-13T15:02:26.430Z,72.06
2022-11-13T15:05:11.492Z,72.49
2022-11-13T15:07:57.072Z,72.39
2022-11-13T15:10:42.463Z,72.27
2022-11-13T15:13:27.849Z,71.70
2022-11-13T15:16:16.784Z,71.31
2022-11-13T15:19:04.931Z,71.59
2022-11-13T15:22:20.463Z,72.01
2022-11-13T15:24:56.080Z,71.42
2022-11-13T15:27:43.318Z,72.52
2022-11-13T15:30:28.906Z,71.01
2022-11-13T15:33:15.747Z,71.18
2022-11-13T15:36:01.658Z,70.61
2022-11-13T15:38:46.912Z,70.77
2022-11-13T15:41:34.162Z,70.14
2022-11-13T15:44:19.508Z,70.57
2022-11-13T15:47:34.600Z,70.79
2022-11-13T15:50:19.564Z,70.38
2022-11-13T15:53:06.191Z,70.75
2022-11-13T15:55:51.352Z,70.20
2022-11-13T15:58:36.545Z,69.76
2022-11-13T16:01:21.820Z,70.77
2022-11-13T16:04:07.409Z,69.92
2022-11-13T16:06:53.883Z,69.61
2022-11-13T16:09:39.135Z,69.26
2022-11-13T16:12:23.917Z,69.55
2022-11-13T16:15:13.678Z,69.00
2022-11-13T16:18:00.718Z,68.53
2022-11-13T16:20:45.844Z,69.09
2022-11-13T16:23:31.152Z,68.98
2022-11-13T16:26:26.789Z,69.04
2022-11-13T16:29:18.754Z,69.34
2022-11-13T16:32:04.120Z,68.59
2022-11-13T16:34:49.404Z,70.33
2022-11-13T16:37:35.454Z,70.40
2022-11-13T16:40:26.223Z,69.38
2022-11-13T16:43:11.977Z,69.22
2022-11-13T16:46:00.362Z,67.93
2022-11-13T16:48:46.320Z,67.95
2022-11-13T16:51:31.497Z,68.80
2022-11-13T16:54:16.680Z,68.10
2022-11-13T16:57:01.727Z,68.34
2022-11-13T16:59:46.799Z,68.94
2022-11-13T17:02:32.118Z,67.95
2022-11-13T17:05:17.359Z,68.69
2022-11-13T17:08:02.640Z,68.37
2022-11-13T17:10:57.025Z,69.06
2022-11-13T17:13:41.993Z,69.78
2022-11-13T17:16:29.207Z,69.47
2022-11-13T17:19:15.040Z,71.32
2022-11-13T17:22:00.394Z,69.58
2022-11-13T17:24:45.471Z,69.21
2022-11-13T17:27:30.819Z,67.98
2022-11-13T17:30:16.410Z,69.07
2022-11-13T17:33:01.778Z,70.88
2022-11-13T17:35:53.641Z,70.42
2022-11-13T17:38:39.194Z,70.03
2022-11-13T17:41:24.240Z,68.46
2022-11-13T17:44:09.705Z,68.73
2022-11-13T17:46:54.637Z,68.63
2022-11-13T17:49:39.759Z,70.70
2022-11-13T17:52:24.640Z,68.67
2022-11-13T17:55:12.484Z,68.81
2022-11-13T17:58:01.735Z,70.68
2022-11-13T18:00:46.538Z,70.96
2022-11-13T18:03:32.023Z,70.93
2022-11-13T18:06:20.019Z,67.97
2022-11-13T18:09:05.544Z,65.84
2022-11-13T18:11:50.450Z,65.89
2022-11-13T18:14:35.544Z,66.50
2022-11-13T18:17:22.388Z,67.46
2022-11-13T18:20:07.594Z,66.92
2022-11-13T18:22:52.342Z,67.38
2022-11-13T18:25:39.718Z,67.14
2022-11-13T18:28:25.184Z,67.67
2022-11-13T18:31:18.904Z,66.93
2022-11-13T18:34:05.821Z,67.81
2022-11-13T18:36:51.117Z,68.75
2022-11-13T18:39:36.118Z,68.25
2022-11-13T18:42:21.358Z,69.90
2022-11-13T18:45:07.461Z,71.65
2022-11-13T18:47:52.249Z,69.44
2022-11-13T18:50:37.209Z,68.53
2022-11-13T18:53:22.075Z,68.32
2022-11-13T18:56:11.426Z,66.94
2022-11-13T18:58:57.104Z,66.76
2022-11-13T19:01:42.343Z,67.09
2022-11-13T19:04:27.559Z,66.25
2022-11-13T19:07:12.848Z,66.16
2022-11-13T19:09:58.426Z,65.51
2022-11-13T19:12:43.752Z,66.08
2022-11-13T19:15:29.021Z,65.52
2022-11-13T19:18:14.389Z,65.46
2022-11-13T19:21:13.018Z,65.96
2022-11-13T19:23:59.792Z,67.19
2022-11-13T19:26:45.924Z,67.67
2022-11-13T19:29:31.046Z,70.89
2022-11-13T19:32:16.285Z,73.43
2022-11-13T19:35:01.544Z,72.74
2022-11-13T19:37:46.837Z,74.24
2022-11-13T19:40:31.780Z,74.24
2022-11-13T19:43:17.324Z,75.23
2022-11-13T19:46:07.148Z,75.24
2022-11-13T19:48:52.933Z,74.18
2022-11-13T19:51:37.777Z,72.25
2022-11-13T19:54:22.828Z,73.76
2022-11-13T19:57:08.073Z,73.46
2022-11-13T19:59:53.309Z,74.08
2022-11-13T20:02:38.842Z,74.86
2022-11-13T20:05:24.572Z,72.75
2022-11-13T20:08:11.556Z,72.38
2022-11-13T20:11:06.996Z,71.25
2022-11-13T20:13:52.268Z,73.15
2022-11-13T20:16:37.333Z,72.34
2022-11-13T20:19:22.786Z,72.27
2022-11-13T20:22:07.804Z,73.07
2022-11-13T20:24:53.113Z,73.54
2022-11-13T20:27:40.763Z,73.33
2022-11-13T20:30:28.422Z,72.88
2022-11-13T20:33:16.219Z,72.63
2022-11-13T20:36:05.484Z,72.30
2022-11-13T20:38:53.213Z,73.05
2022-11-13T20:41:38.291Z,72.09
2022-11-13T20:44:23.746Z,73.17
2022-11-13T20:47:08.967Z,72.29
2022-11-13T20:49:54.176Z,73.12
2022-11-13T20:52:39.346Z,72.71
2022-11-13T20:55:24.524Z,73.22
2022-11-13T20:58:09.497Z,73.07
2022-11-13T21:01:04.876Z,72.25
2022-11-13T21:03:50.464Z,72.01
2022-11-13T21:06:35.778Z,71.76
2022-11-13T21:09:21.041Z,72.64
2022-11-13T21:12:06.301Z,72.48
2022-11-13T21:14:52.082Z,73.31
2022-11-13T21:17:37.174Z,74.10
2022-11-13T21:20:22.487Z,74.08
2022-11-13T21:23:07.505Z,73.48
2022-11-13T21:26:03.161Z,73.08
2022-11-13T21:28:48.056Z,73.28
2022-11-13T21:31:33.501Z,74.87
2022-11-13T21:34:18.701Z,74.99
2022-11-13T21:37:03.976Z,74.85
2022-11-13T21:39:49.176Z,75.20
2022-11-13T21:42:34.357Z,75.26
2022-11-13T21:45:19.561Z,74.61
2022-11-13T21:48:04.737Z,73.61
2022-11-13T21:50:49.741Z,72.92
2022-11-13T21:53:35.013Z,73.33
2022-11-13T21:56:20.061Z,73.10
2022-11-13T21:59:06.172Z,72.17
2022-11-13T22:01:51.800Z,72.65
2022-11-13T22:04:37.082Z,73.63
2022-11-13T22:07:22.319Z,73.73
2022-11-13T22:10:08.659Z,72.79
2022-11-13T22:12:53.872Z,73.14
2022-11-13T22:15:38.801Z,72.12
2022-11-13T22:18:24.432Z,72.20
2022-11-13T22:21:10.882Z,71.81
2022-11-13T22:23:56.320Z,72.30
2022-11-13T22:26:45.356Z,72.56
2022-11-13T22:29:30.489Z,71.88
2022-11-13T22:32:15.863Z,71.98
2022-11-13T22:35:00.870Z,72.94
2022-11-13T22:37:45.821Z,73.24
2022-11-13T22:40:32.707Z,73.09
2022-11-13T22:43:17.569Z,73.01
2022-11-13T22:46:08.674Z,73.54
2022-11-13T22:48:55.622Z,72.59
2022-11-13T22:51:41.737Z,72.67
2022-11-13T22:54:26.635Z,72.64
2022-11-13T22:57:11.905Z,72.71
2022-11-13T22:59:56.704Z,72.01
2022-11-13T23:02:46.960Z,71.54
2022-11-13T23:05:35.840Z,73.00
2022-11-13T23:08:21.255Z,72.15
2022-11-13T23:11:09.594Z,71.96
2022-11-13T23:13:56.545Z,71.92
2022-11-13T23:16:41.715Z,72.43
2022-11-13T23:19:26.871Z,72.32
2022-11-13T23:22:12.225Z,73.04
2022-11-13T23:24:57.413Z,73.04
2022-11-13T23:27:42.378Z,72.41
2022-11-13T23:30:27.594Z,72.23
2022-11-13T23:33:13.035Z,72.47
2022-11-13T23:35:58.278Z,71.79
2022-11-13T23:38:43.890Z,73.10
2022-11-13T23:41:29.209Z,72.42
2022-11-13T23:44:14.345Z,73.25
2022-11-13T23:46:59.570Z,73.84
2022-11-13T23:49:44.496Z,73.21
2022-11-13T23:52:29.637Z,73.48
2022-11-13T23:55:15.963Z,73.51
2022-11-13T23:58:03.443Z,73.40
